createdAt,value
2018-07-17T00:02:27.918Z,3.57
2018-07-17T00:08:33.576Z,3.10
2018-07-17T00:14:39.411Z,3.53
2018-07-17T00:20:45.455Z,3.07
2018-07-17T00:26:51.829Z,3.50
2018-07-17T00:32:57.642Z,3.77
2018-07-17T00:39:03.331Z,3.00
2018-07-17T00:45:09.016Z,3.57
2018-07-17T00:51:14.736Z,3.57
2018-07-17T00:57:20.616Z,3.70
2018-07-17T01:03:31.711Z,3.40
2018-07-17T01:09:42.467Z,3.77
2018-07-17T01:15:48.161Z,3.83
2018-07-17T01:21:54.381Z,4.00
2018-07-17T01:28:00.041Z,3.93
2018-07-17T01:34:05.715Z,3.80
2018-07-17T01:40:11.328Z,4.33
2018-07-17T01:46:17.044Z,3.53
2018-07-17T01:52:22.897Z,4.10
2018-07-17T01:58:28.571Z,4.17
2018-07-17T02:04:34.279Z,4.53
2018-07-17T02:10:39.984Z,3.90
2018-07-17T02:16:45.593Z,3.77
2018-07-17T02:22:51.231Z,3.63
2018-07-17T02:28:57.221Z,4.17
2018-07-17T02:35:02.970Z,4.10
2018-07-17T02:41:09.128Z,4.03
2018-07-17T02:47:14.941Z,4.10
2018-07-17T02:53:20.675Z,3.90
2018-07-17T02:59:26.453Z,4.73
2018-07-17T03:05:32.150Z,4.53
2018-07-17T03:11:37.908Z,4.20
2018-07-17T03:17:43.686Z,3.60
2018-07-17T03:23:49.390Z,4.67
2018-07-17T03:29:55.725Z,4.20
2018-07-17T03:36:01.598Z,5.33
2018-07-17T03:42:07.376Z,4.73
2018-07-17T03:48:13.207Z,4.23
2018-07-17T03:54:19.014Z,4.50
2018-07-17T04:00:24.745Z,4.90
2018-07-17T04:06:30.701Z,4.63
2018-07-17T04:12:36.374Z,4.70
2018-07-17T04:18:42.102Z,5.10
2018-07-17T04:24:47.841Z,3.83
2018-07-17T04:30:53.684Z,4.70
2018-07-17T04:36:59.416Z,4.53
2018-07-17T04:43:05.133Z,4.50
2018-07-17T04:49:10.844Z,4.70
2018-07-17T04:55:16.541Z,4.83
2018-07-17T05:01:22.767Z,4.80
2018-07-17T05:07:28.426Z,5.00
2018-07-17T05:13:34.009Z,4.93
2018-07-17T05:19:39.744Z,5.93
2018-07-17T05:25:45.418Z,5.73
2018-07-17T05:31:51.840Z,5.90
2018-07-17T05:37:57.291Z,6.37
2018-07-17T05:44:02.863Z,7.00
2018-07-17T05:50:09.410Z,6.00
2018-07-17T05:56:15.070Z,4.83
2018-07-17T06:02:21.051Z,5.20
2018-07-17T06:08:26.771Z,4.40
2018-07-17T06:14:32.542Z,5.70
2018-07-17T06:20:38.345Z,4.70
2018-07-17T06:26:44.050Z,5.23
2018-07-17T06:32:49.834Z,4.87
2018-07-17T06:38:55.584Z,5.50
2018-07-17T06:45:01.290Z,5.97
2018-07-17T06:51:07.125Z,5.10
2018-07-17T06:57:12.944Z,5.03
2018-07-17T07:03:18.816Z,4.63
2018-07-17T07:09:25.057Z,5.00
2018-07-17T07:15:30.838Z,5.17
2018-07-17T07:21:36.604Z,4.83
2018-07-17T07:27:42.392Z,4.90
2018-07-17T07:33:48.021Z,5.70
2018-07-17T07:39:53.822Z,4.90
2018-07-17T07:45:59.585Z,4.93
2018-07-17T07:52:05.262Z,5.50
2018-07-17T07:58:10.974Z,5.47
2018-07-17T08:04:16.756Z,5.17
2018-07-17T08:10:22.835Z,5.00
2018-07-17T08:16:28.541Z,6.77
2018-07-17T08:22:34.211Z,5.93
2018-07-17T08:28:39.865Z,6.27
2018-07-17T08:34:45.515Z,4.70
2018-07-17T08:40:51.990Z,4.30
2018-07-17T08:46:57.655Z,4.50
2018-07-17T08:53:03.378Z,4.37
2018-07-17T08:59:09.014Z,4.33
2018-07-17T09:05:14.687Z,3.90
2018-07-17T09:11:22.112Z,3.90
2018-07-17T09:17:27.924Z,4.00
2018-07-17T09:23:33.741Z,3.63
2018-07-17T09:29:39.469Z,3.80
2018-07-17T09:35:45.580Z,3.73
2018-07-17T09:41:52.204Z,3.60
2018-07-17T09:47:57.891Z,3.27
2018-07-17T09:54:03.632Z,3.60
2018-07-17T10:00:11.207Z,3.47
2018-07-17T10:06:17.291Z,3.27
2018-07-17T10:12:24.296Z,3.47
2018-07-17T10:18:30.307Z,3.13
2018-07-17T10:24:35.976Z,3.00
2018-07-17T10:30:41.824Z,3.00
2018-07-17T10:36:47.565Z,2.77
2018-07-17T10:42:53.894Z,3.70
2018-07-17T10:48:59.676Z,3.20
2018-07-17T10:55:05.684Z,3.30
2018-07-17T11:01:11.519Z,2.87
2018-07-17T11:07:17.193Z,2.50
2018-07-17T11:13:22.920Z,2.10
2018-07-17T11:19:28.618Z,2.43
2018-07-17T11:25:34.311Z,1.80
2018-07-17T11:31:40.036Z,2.37
2018-07-17T11:37:45.720Z,1.90
2018-07-17T11:43:51.857Z,2.27
2018-07-17T11:49:57.782Z,2.37
2018-07-17T11:56:03.447Z,1.90
2018-07-17T12:02:09.204Z,1.80
2018-07-17T12:08:15.129Z,1.60
2018-07-17T12:14:21.899Z,1.60
2018-07-17T12:20:27.704Z,2.00
2018-07-17T12:26:33.347Z,2.20
2018-07-17T12:32:39.449Z,2.30
2018-07-17T12:38:45.106Z,2.10
2018-07-17T12:44:51.201Z,2.57
2018-07-17T12:50:57.071Z,2.10
2018-07-17T12:57:02.733Z,2.33
2018-07-17T13:03:08.827Z,2.20
2018-07-17T13:09:14.529Z,2.30
2018-07-17T13:15:21.304Z,2.20
2018-07-17T13:21:27.478Z,2.80
2018-07-17T13:27:33.136Z,2.70
2018-07-17T13:33:38.844Z,2.60
2018-07-17T13:39:44.700Z,2.77
2018-07-17T13:45:51.370Z,2.40
2018-07-17T13:51:57.348Z,2.50
2018-07-17T13:58:03.162Z,2.57
2018-07-17T14:04:08.827Z,2.50
2018-07-17T14:10:14.549Z,3.10
2018-07-17T14:16:20.308Z,3.20
2018-07-17T14:22:27.092Z,3.05
2018-07-17T14:28:33.216Z,2.97
2018-07-17T14:34:39.066Z,2.80
2018-07-17T14:40:45.267Z,3.30
2018-07-17T14:46:51.264Z,2.97
2018-07-17T14:52:57.009Z,3.10
2018-07-17T14:59:02.670Z,3.03
2018-07-17T15:05:09.672Z,2.90
2018-07-17T15:11:15.367Z,3.40
2018-07-17T15:17:21.274Z,3.40
2018-07-17T15:23:27.110Z,2.90
2018-07-17T15:29:33.353Z,3.23
2018-07-17T15:35:39.068Z,2.80
2018-07-17T15:41:45.041Z,3.17
2018-07-17T15:47:50.953Z,3.30
2018-07-17T15:53:56.910Z,2.43
2018-07-17T16:00:02.900Z,3.13
2018-07-17T16:06:08.891Z,2.87
2018-07-17T16:12:14.787Z,2.60
2018-07-17T16:18:20.796Z,2.80
2018-07-17T16:24:26.810Z,3.23
2018-07-17T16:30:32.744Z,3.17
2018-07-17T16:36:38.751Z,3.13
2018-07-17T16:42:44.547Z,3.10
2018-07-17T16:48:50.139Z,2.90
2018-07-17T16:54:55.770Z,3.30
2018-07-17T17:01:02.212Z,3.83
2018-07-17T17:07:07.902Z,3.30
2018-07-17T17:13:13.902Z,3.10
2018-07-17T17:19:19.825Z,3.37
2018-07-17T17:25:25.776Z,3.40
2018-07-17T17:31:31.697Z,3.60
2018-07-17T17:37:37.610Z,3.40
2018-07-17T17:43:43.367Z,3.73
2018-07-17T17:49:49.341Z,3.43
2018-07-17T17:55:55.027Z,3.40
2018-07-17T18:02:00.913Z,3.20
2018-07-17T18:08:06.916Z,4.77
2018-07-17T18:14:12.900Z,3.73
2018-07-17T18:20:18.925Z,4.33
2018-07-17T18:26:24.926Z,3.77
2018-07-17T18:32:30.930Z,3.60
2018-07-17T18:38:36.867Z,4.90
2018-07-17T18:44:42.760Z,4.00
2018-07-17T18:50:48.743Z,3.83
2018-07-17T18:56:54.713Z,3.90
2018-07-17T19:03:00.635Z,4.80
2018-07-17T19:09:09.417Z,4.07
2018-07-17T19:15:14.997Z,4.67
2018-07-17T19:21:20.639Z,4.27
2018-07-17T19:27:26.194Z,4.27
2018-07-17T19:33:31.773Z,4.43
2018-07-17T19:39:37.353Z,4.27
2018-07-17T19:45:42.927Z,4.03
2018-07-17T19:51:48.545Z,3.97
2018-07-17T19:57:54.298Z,4.13
2018-07-17T20:03:59.961Z,4.17
2018-07-17T20:10:05.865Z,3.83
2018-07-17T20:16:11.807Z,3.90
2018-07-17T20:22:17.799Z,4.03
2018-07-17T20:28:23.695Z,4.00
2018-07-17T20:34:30.434Z,3.63
2018-07-17T20:40:36.346Z,3.87
2018-07-17T20:46:42.275Z,4.40
2018-07-17T20:52:48.215Z,3.60
2018-07-17T20:58:53.799Z,4.50
2018-07-17T21:04:59.448Z,4.00
2018-07-17T21:11:04.986Z,4.40
2018-07-17T21:17:10.555Z,3.53
2018-07-17T21:23:16.131Z,3.90
2018-07-17T21:29:21.852Z,3.70
2018-07-17T21:35:27.459Z,4.37
2018-07-17T21:41:33.012Z,4.37
2018-07-17T21:48:00.787Z,4.53
2018-07-17T21:54:06.590Z,3.80
2018-07-17T22:00:12.216Z,4.50
2018-07-17T22:06:17.849Z,5.33
2018-07-17T22:12:23.718Z,4.20
2018-07-17T22:18:29.314Z,4.03
2018-07-17T22:24:34.862Z,5.10
2018-07-17T22:30:40.467Z,4.30
2018-07-17T22:36:46.038Z,4.30
2018-07-17T22:42:51.616Z,4.37
2018-07-17T22:48:56.857Z,4.70
2018-07-17T22:55:02.286Z,3.90
2018-07-17T23:01:08.107Z,4.80
2018-07-17T23:07:13.653Z,5.40
2018-07-17T23:13:19.283Z,5.30
2018-07-17T23:19:24.809Z,4.50
2018-07-17T23:25:31.573Z,5.13
2018-07-17T23:31:37.139Z,5.40
2018-07-17T23:37:42.687Z,5.03
2018-07-17T23:43:48.291Z,5.10
2018-07-17T23:49:53.932Z,5.37
2018-07-17T23:55:59.857Z,5.60
